Legend — WDF9316 — position and weather

sailwx.info

Track history (hours):
 
Tides and Currents Weather Stations Pressure Air Temp Water Temp Dewpoint Dewpoint Depression Visibility Wind Speed Wind Dir Waves Ship Positions

Legend

Owner: Crowley Maritime, Seattle, WA. More information available from US FCC via Universal Licensing System and Coast Guard Vessel Documentation Center.

Last reported at 2015-Aug-02 23:33 UTC. Time now 2015-Aug-03 00:27 UTC.
Position N 26°06' W 080°07'.

Length 212 m; draft 11.2 m.

Type: Tow > 200 m length. MMSI: 366709000.

Date/timePositionNaut miles runAvg speedWind from/ knotsBaromVisibWave heightAir tempDewpointWater temp
2015-Aug-02 23:33N 26°06' W 080°07'0 0.0
2015-Aug-02 22:27N 26°06' W 080°07'0 0.0
2015-Aug-02 21:27N 26°06' W 080°07'0 0.0
2015-Aug-02 20:30N 26°06' W 080°07'0 0.0
2015-Aug-02 19:30N 26°06' W 080°07'0 0.0
2015-Aug-02 18:30N 26°06' W 080°07'0 0.0
2015-Aug-02 17:33N 26°06' W 080°07'0 0.0
2015-Aug-02 16:33N 26°06' W 080°07'0 0.0
2015-Aug-02 15:33N 26°06' W 080°07'0 0.0
2015-Aug-02 14:33N 26°06' W 080°07'0 0.0
2015-Aug-02 13:33N 26°06' W 080°07'0 0.0
2015-Aug-02 12:33N 26°06' W 080°07'0 0.0
2015-Aug-02 11:33N 26°06' W 080°07'0 0.0
2015-Aug-02 10:24N 26°06' W 080°07'0 0.0
2015-Aug-02 09:27N 26°06' W 080°07'0 0.0
2015-Aug-02 08:27N 26°06' W 080°07'0 0.0
2015-Aug-02 07:27N 26°06' W 080°07'0 0.0
2015-Aug-02 06:30N 26°06' W 080°07'0 0.0
2015-Aug-02 05:30N 26°06' W 080°07'0 0.0
2015-Aug-02 04:30N 26°06' W 080°07'0 0.0
2015-Aug-02 03:33N 26°06' W 080°07'0 0.0
2015-Aug-02 02:33N 26°06' W 080°07'1 1.0
2015-Aug-02 01:33N 26°06' W 080°06'2 2.4
2015-Aug-02 00:33N 26°07' W 080°05'0 0.1
2015-Aug-01 23:32N 26°08' W 080°05'0 0.0
2015-Aug-01 22:29N 26°08' W 080°05'0 0.0
2015-Aug-01 21:32N 26°08' W 080°05'0 0.0
2015-Aug-01 20:29N 26°08' W 080°05'0 0.0
2015-Aug-01 19:29N 26°08' W 080°05'0 0.0
2015-Aug-01 18:32N 26°08' W 080°05'0 0.0
2015-Aug-01 17:32N 26°08' W 080°05'0 0.0
2015-Aug-01 16:32N 26°08' W 080°05'0 0.0
2015-Aug-01 15:32N 26°08' W 080°05'0 0.0
2015-Aug-01 14:32N 26°08' W 080°05'2 1.6
2015-Aug-01 13:34N 26°07' W 080°03'1616.4
2015-Aug-01 12:33N 25°51' W 079°60'1716.5
2015-Aug-01 11:34N 25°34' W 079°59'  
2015-Jul-30 06:10N 29°55' W 089°57'812.3
2015-Jul-30 05:31N 29°55' W 090°06'  
2015-Jul-27 00:31N 29°57' W 090°09'5 4.7
2015-Jul-26 23:33N 29°57' W 090°03'7 3.6
2015-Jul-26 21:33N 29°51' W 089°59'  
2015-Jul-24 02:22N 25°18' W 080°03'7 9.0
2015-Jul-24 01:33N 25°25' W 080°01'9 9.5
2015-Jul-24 00:33N 25°35' W 080°01'10 9.6
2015-Jul-23 23:33N 25°44' W 080°01'  
Track history (hours):
 
Tides and Currents Weather Stations Pressure Air Temp Water Temp Dewpoint Dewpoint Depression Visibility Wind Speed Wind Dir Waves Ship Positions

Legend

Owner: Crowley Maritime, Seattle, WA. More information available from US FCC via Universal Licensing System and Coast Guard Vessel Documentation Center.

Last reported at 2015-Aug-02 23:33 UTC. Time now 2015-Aug-03 00:27 UTC.
Position N 26°06' W 080°07'.

Length 212 m; draft 11.2 m.

Type: Tow > 200 m length. MMSI: 366709000.

Date/timePositionNaut miles runAvg speedWind from/ knotsBaromVisibWave heightAir tempDewpointWater temp
2015-Aug-02 23:33N 26°06' W 080°07'0 0.0
2015-Aug-02 22:27N 26°06' W 080°07'0 0.0
2015-Aug-02 21:27N 26°06' W 080°07'0 0.0
2015-Aug-02 20:30N 26°06' W 080°07'0 0.0
2015-Aug-02 19:30N 26°06' W 080°07'0 0.0
2015-Aug-02 18:30N 26°06' W 080°07'0 0.0
2015-Aug-02 17:33N 26°06' W 080°07'0 0.0
2015-Aug-02 16:33N 26°06' W 080°07'0 0.0
2015-Aug-02 15:33N 26°06' W 080°07'0 0.0
2015-Aug-02 14:33N 26°06' W 080°07'0 0.0
2015-Aug-02 13:33N 26°06' W 080°07'0 0.0
2015-Aug-02 12:33N 26°06' W 080°07'0 0.0
2015-Aug-02 11:33N 26°06' W 080°07'0 0.0
2015-Aug-02 10:24N 26°06' W 080°07'0 0.0
2015-Aug-02 09:27N 26°06' W 080°07'0 0.0
2015-Aug-02 08:27N 26°06' W 080°07'0 0.0
2015-Aug-02 07:27N 26°06' W 080°07'0 0.0
2015-Aug-02 06:30N 26°06' W 080°07'0 0.0
2015-Aug-02 05:30N 26°06' W 080°07'0 0.0
2015-Aug-02 04:30N 26°06' W 080°07'0 0.0
2015-Aug-02 03:33N 26°06' W 080°07'0 0.0
2015-Aug-02 02:33N 26°06' W 080°07'1 1.0
2015-Aug-02 01:33N 26°06' W 080°06'2 2.4
2015-Aug-02 00:33N 26°07' W 080°05'0 0.1
2015-Aug-01 23:32N 26°08' W 080°05'0 0.0
2015-Aug-01 22:29N 26°08' W 080°05'0 0.0
2015-Aug-01 21:32N 26°08' W 080°05'0 0.0
2015-Aug-01 20:29N 26°08' W 080°05'0 0.0
2015-Aug-01 19:29N 26°08' W 080°05'0 0.0
2015-Aug-01 18:32N 26°08' W 080°05'0 0.0
2015-Aug-01 17:32N 26°08' W 080°05'0 0.0
2015-Aug-01 16:32N 26°08' W 080°05'0 0.0
2015-Aug-01 15:32N 26°08' W 080°05'0 0.0
2015-Aug-01 14:32N 26°08' W 080°05'2 1.6
2015-Aug-01 13:34N 26°07' W 080°03'1616.4
2015-Aug-01 12:33N 25°51' W 079°60'1716.5
2015-Aug-01 11:34N 25°34' W 079°59'  
2015-Jul-30 06:10N 29°55' W 089°57'812.3
2015-Jul-30 05:31N 29°55' W 090°06'  
2015-Jul-27 00:31N 29°57' W 090°09'5 4.7
2015-Jul-26 23:33N 29°57' W 090°03'7 3.6
2015-Jul-26 21:33N 29°51' W 089°59'  
2015-Jul-24 02:22N 25°18' W 080°03'7 9.0
2015-Jul-24 01:33N 25°25' W 080°01'9 9.5
2015-Jul-24 00:33N 25°35' W 080°01'10 9.6
2015-Jul-23 23:33N 25°44' W 080°01'  

Dump ship's entire track history